KP68

Eureka Airport

Nevada, USA
METAR KP68 261253Z AUTO 20003KT 03/01 A2994 RMK AO1 SLP086 T00280006
Observed Flight Rules
May-26 @ 12:53 UTC (37 minutes ago)
Wind
200° at 3 knots
Temperatures Readings
Current 3°C / 37°F
Dewpoint 1°C / 34°F
Humidity 87%
Altimeter 29.94" Hg
Pressure 1008.6 hPa
Elevation 1809
METAR KP68 261253Z AUTO 20003KT 03/01 A2994 RMK AO1 SLP086 T00280006
Observed Flight Rules
May-26 @ 12:53 UTC
(37 minutes ago)
Wind
200° at 3 knots
Temperature Dewpoint
3°C / 37°F 1°C / 34°F
Humidity Altimeter Pressure
87% 29.94" Hg 1008.6 hPa